createdAt,value
2022-10-04T00:00:26.760Z,9.60
2022-10-04T00:02:53.270Z,9.60
2022-10-04T00:05:19.791Z,9.60
2022-10-04T00:07:46.293Z,9.60
2022-10-04T00:10:12.811Z,9.60
2022-10-04T00:12:39.308Z,9.60
2022-10-04T00:15:05.807Z,9.50
2022-10-04T00:17:35.417Z,9.40
2022-10-04T00:20:01.927Z,9.40
2022-10-04T00:22:28.497Z,9.40
2022-10-04T00:24:55.033Z,9.30
2022-10-04T00:27:21.601Z,9.30
2022-10-04T00:29:48.347Z,9.20
2022-10-04T00:32:14.901Z,9.20
2022-10-04T00:34:41.377Z,9.20
2022-10-04T00:37:07.855Z,9.10
2022-10-04T00:39:34.390Z,9.10
2022-10-04T00:42:00.875Z,9.10
2022-10-04T00:44:27.402Z,9.10
2022-10-04T00:46:53.908Z,9.10
2022-10-04T00:49:20.444Z,9.10
2022-10-04T00:51:46.941Z,9.10
2022-10-04T00:54:13.463Z,9.10
2022-10-04T00:56:39.992Z,9.10
2022-10-04T00:59:06.762Z,9.20
2022-10-04T01:01:33.330Z,9.20
2022-10-04T01:03:59.921Z,9.20
2022-10-04T01:06:26.414Z,9.20
2022-10-04T01:08:52.971Z,9.20
2022-10-04T01:11:19.487Z,9.20
2022-10-04T01:13:45.961Z,9.20
2022-10-04T01:16:12.493Z,9.20
2022-10-04T01:18:38.992Z,9.20
2022-10-04T01:21:05.526Z,9.20
2022-10-04T01:23:32.030Z,9.20
2022-10-04T01:25:59.022Z,9.20
2022-10-04T01:28:25.535Z,9.20
2022-10-04T01:30:52.909Z,9.10
2022-10-04T01:33:19.438Z,9.10
2022-10-04T01:35:45.928Z,9.00
2022-10-04T01:38:12.834Z,9.00
2022-10-04T01:40:39.329Z,9.00
2022-10-04T01:43:05.843Z,9.00
2022-10-04T01:45:32.459Z,9.00
2022-10-04T01:47:58.963Z,8.90
2022-10-04T01:50:25.487Z,8.80
2022-10-04T01:52:52.012Z,8.80
2022-10-04T01:55:18.542Z,8.80
2022-10-04T01:57:45.065Z,8.80
2022-10-04T02:00:12.410Z,8.80
2022-10-04T02:02:39.056Z,8.80
2022-10-04T02:05:05.670Z,8.80
2022-10-04T02:07:32.252Z,8.80
2022-10-04T02:09:59.538Z,8.80
2022-10-04T02:12:26.934Z,8.90
2022-10-04T02:14:53.446Z,8.90
2022-10-04T02:17:19.942Z,8.90
2022-10-04T02:19:46.411Z,8.90
2022-10-04T02:22:12.929Z,9.00
2022-10-04T02:24:39.413Z,9.00
2022-10-04T02:27:06.280Z,9.00
2022-10-04T02:29:32.760Z,9.00
2022-10-04T02:32:18.169Z,9.00
2022-10-04T02:34:45.273Z,9.00
2022-10-04T02:37:12.356Z,9.00
2022-10-04T02:39:39.317Z,9.00
2022-10-04T02:42:06.045Z,9.00
2022-10-04T02:44:32.550Z,9.00
2022-10-04T02:46:59.103Z,9.00
2022-10-04T02:49:25.596Z,9.00
2022-10-04T02:51:52.261Z,8.90
2022-10-04T02:54:18.725Z,8.90
2022-10-04T02:56:45.208Z,8.90
2022-10-04T02:59:11.712Z,8.80
2022-10-04T03:01:38.325Z,8.80
2022-10-04T03:04:04.839Z,8.80
2022-10-04T03:06:32.296Z,8.80
2022-10-04T03:08:59.085Z,8.80
2022-10-04T03:11:25.609Z,8.80
2022-10-04T03:13:52.137Z,8.80
2022-10-04T03:16:19.252Z,8.80
2022-10-04T03:18:45.814Z,8.80
2022-10-04T03:21:12.338Z,8.80
2022-10-04T03:23:38.868Z,8.80
2022-10-04T03:26:05.413Z,8.80
2022-10-04T03:28:32.029Z,8.80
2022-10-04T03:30:58.583Z,8.80
2022-10-04T03:33:25.100Z,8.90
2022-10-04T03:35:51.664Z,8.90
2022-10-04T03:38:18.153Z,8.90
2022-10-04T03:40:45.137Z,8.90
2022-10-04T03:43:12.412Z,8.90
2022-10-04T03:45:39.130Z,8.90
2022-10-04T03:48:05.747Z,8.90
2022-10-04T03:50:34.075Z,8.90
2022-10-04T03:53:03.369Z,8.90
2022-10-04T03:55:29.843Z,8.90
2022-10-04T03:57:56.361Z,8.90
2022-10-04T04:00:22.917Z,8.90
2022-10-04T04:02:49.410Z,8.90
2022-10-04T04:05:16.114Z,9.00
2022-10-04T04:07:42.619Z,8.90
2022-10-04T04:10:13.172Z,9.00
2022-10-04T04:12:43.089Z,9.00
2022-10-04T04:15:09.559Z,8.90
2022-10-04T04:17:36.674Z,9.00
2022-10-04T04:20:07.493Z,9.00
2022-10-04T04:22:34.270Z,8.90
2022-10-04T04:25:00.948Z,8.90
2022-10-04T04:27:29.231Z,8.90
2022-10-04T04:29:55.797Z,8.90
2022-10-04T04:32:23.822Z,8.90
2022-10-04T04:34:50.363Z,8.90
2022-10-04T04:37:16.857Z,8.90
2022-10-04T04:39:51.743Z,8.80
2022-10-04T04:42:18.900Z,8.80
2022-10-04T04:44:46.114Z,8.80
2022-10-04T04:47:17.530Z,8.80
2022-10-04T04:49:45.508Z,8.80
2022-10-04T04:52:11.972Z,8.80
2022-10-04T04:54:38.749Z,8.70
2022-10-04T04:57:05.604Z,8.70
2022-10-04T04:59:32.100Z,8.70
2022-10-04T05:01:58.792Z,8.70
2022-10-04T05:04:26.200Z,8.60
2022-10-04T05:06:52.690Z,8.60
2022-10-04T05:09:19.168Z,8.60
2022-10-04T05:11:45.653Z,8.60
2022-10-04T05:14:12.245Z,8.60
2022-10-04T05:16:38.825Z,8.60
2022-10-04T05:19:05.589Z,8.50
2022-10-04T05:21:32.036Z,8.50
2022-10-04T05:23:58.520Z,8.50
2022-10-04T05:26:25.040Z,8.50
2022-10-04T05:28:51.548Z,8.50
2022-10-04T05:31:18.085Z,8.50
2022-10-04T05:33:44.631Z,8.50
2022-10-04T05:36:11.130Z,8.50
2022-10-04T05:38:37.897Z,8.50
2022-10-04T05:41:04.422Z,8.50
2022-10-04T05:43:30.896Z,8.50
2022-10-04T05:45:57.470Z,8.50
2022-10-04T05:48:23.977Z,8.50
2022-10-04T05:50:50.553Z,8.50
2022-10-04T05:53:17.057Z,8.60
2022-10-04T05:55:43.568Z,8.60
2022-10-04T05:58:10.215Z,8.60
2022-10-04T06:00:36.730Z,8.60
2022-10-04T06:03:03.295Z,8.60
2022-10-04T06:05:29.822Z,8.70
2022-10-04T06:07:56.308Z,8.70
2022-10-04T06:10:25.882Z,8.70
2022-10-04T06:12:53.325Z,8.70
2022-10-04T06:15:20.052Z,8.70
2022-10-04T06:17:46.536Z,8.70
2022-10-04T06:20:13.025Z,8.70
2022-10-04T06:22:39.687Z,8.80
2022-10-04T06:25:06.207Z,8.80
2022-10-04T06:27:33.396Z,8.80
2022-10-04T06:30:00.049Z,8.80
2022-10-04T06:32:26.725Z,8.80
2022-10-04T06:34:53.957Z,8.80
2022-10-04T06:37:21.092Z,8.80
2022-10-04T06:40:15.992Z,8.90
2022-10-04T06:42:43.596Z,8.90
2022-10-04T06:45:10.483Z,8.90
2022-10-04T06:47:37.459Z,8.90
2022-10-04T06:50:04.225Z,8.90
2022-10-04T06:52:31.127Z,8.90
2022-10-04T06:54:57.793Z,8.90
2022-10-04T06:57:24.923Z,8.90
2022-10-04T06:59:52.690Z,8.90
2022-10-04T07:02:19.594Z,9.00
2022-10-04T07:07:36.275Z,8.90
2022-10-04T07:10:02.929Z,8.90
2022-10-04T07:12:29.751Z,9.00
2022-10-04T07:14:56.326Z,9.00
2022-10-04T07:17:23.243Z,9.10
2022-10-04T07:19:49.856Z,9.20
2022-10-04T07:22:16.439Z,9.20
2022-10-04T07:24:43.168Z,9.30
2022-10-04T07:27:09.902Z,9.40
2022-10-04T07:29:41.781Z,9.50
2022-10-04T07:32:09.513Z,9.50
2022-10-04T07:34:36.437Z,9.60
2022-10-04T07:37:03.319Z,9.60
2022-10-04T07:39:29.990Z,9.70
2022-10-04T07:41:57.702Z,9.80
2022-10-04T07:44:24.933Z,9.80
2022-10-04T07:46:52.913Z,9.80
2022-10-04T07:49:19.807Z,9.80
2022-10-04T07:51:46.698Z,9.90
2022-10-04T07:54:13.848Z,10.00
2022-10-04T07:56:40.902Z,10.10
2022-10-04T07:59:07.698Z,10.10
2022-10-04T08:01:34.460Z,10.20
2022-10-04T08:04:01.290Z,10.30
2022-10-04T08:06:27.896Z,10.40
2022-10-04T08:08:54.464Z,10.50
2022-10-04T08:11:22.094Z,10.50
2022-10-04T08:13:48.749Z,10.60
2022-10-04T08:16:15.412Z,10.70
2022-10-04T08:18:43.254Z,10.70
2022-10-04T08:21:09.885Z,10.80
2022-10-04T08:23:36.493Z,10.80
2022-10-04T08:26:03.790Z,11.00
2022-10-04T08:28:49.248Z,11.10
2022-10-04T08:31:16.090Z,11.20
2022-10-04T08:33:42.987Z,11.30
2022-10-04T08:36:09.751Z,11.30
2022-10-04T08:38:36.448Z,11.50
2022-10-04T08:41:03.259Z,11.50
2022-10-04T08:43:30.709Z,11.40
2022-10-04T08:45:58.329Z,11.40
2022-10-04T08:48:25.237Z,11.40
2022-10-04T08:50:51.855Z,11.40
2022-10-04T08:53:20.777Z,11.50
2022-10-04T08:55:47.698Z,11.60
2022-10-04T08:58:14.475Z,11.70
2022-10-04T09:00:41.251Z,11.80
2022-10-04T09:03:08.474Z,11.90
2022-10-04T09:05:35.347Z,12.00
2022-10-04T09:08:04.405Z,12.00
2022-10-04T09:10:31.132Z,11.90
2022-10-04T09:12:57.972Z,11.90
2022-10-04T09:15:27.032Z,11.90
2022-10-04T09:17:53.610Z,12.00
2022-10-04T09:20:41.089Z,12.00
2022-10-04T09:23:34.262Z,12.10
2022-10-04T09:26:00.989Z,12.30
2022-10-04T09:28:27.601Z,12.40
2022-10-04T09:30:54.246Z,12.50
2022-10-04T09:33:21.430Z,12.50
2022-10-04T09:35:48.236Z,12.60
2022-10-04T09:38:15.167Z,12.70
2022-10-04T09:40:47.096Z,12.80
2022-10-04T09:43:14.363Z,13.00
2022-10-04T09:45:41.012Z,13.10
2022-10-04T09:48:08.435Z,13.10
2022-10-04T09:50:37.425Z,13.20
2022-10-04T09:53:04.329Z,13.20
2022-10-04T09:55:31.169Z,13.30
2022-10-04T09:57:57.812Z,13.30
2022-10-04T10:00:25.279Z,13.40
2022-10-04T10:02:55.561Z,13.40
2022-10-04T10:05:22.446Z,13.50
2022-10-04T10:07:49.069Z,13.70
2022-10-04T10:10:34.672Z,13.80
2022-10-04T10:13:20.881Z,13.80
2022-10-04T10:15:47.517Z,13.80
2022-10-04T10:23:49.746Z,13.90
2022-10-04T10:26:16.379Z,14.10
2022-10-04T10:28:43.065Z,14.20
2022-10-04T10:31:09.657Z,14.30
2022-10-04T10:33:38.259Z,14.30
2022-10-04T10:36:04.923Z,14.40
2022-10-04T10:38:33.356Z,14.40
2022-10-04T10:41:10.089Z,14.40
2022-10-04T10:43:38.065Z,14.40
2022-10-04T10:46:06.090Z,14.30
2022-10-04T10:48:32.780Z,14.40
2022-10-04T10:50:59.944Z,14.60
2022-10-04T10:53:29.259Z,14.70
2022-10-04T10:55:56.556Z,14.70
2022-10-04T10:58:33.711Z,14.60
2022-10-04T11:01:00.385Z,14.60
2022-10-04T11:03:32.045Z,14.60
2022-10-04T11:06:00.254Z,14.60
2022-10-04T11:08:29.934Z,14.80
2022-10-04T11:10:56.432Z,15.10
2022-10-04T11:13:26.619Z,15.20
2022-10-04T11:15:53.458Z,15.30
2022-10-04T11:18:20.308Z,15.50
2022-10-04T11:20:47.006Z,15.50
2022-10-04T11:23:15.524Z,15.60
2022-10-04T11:25:42.043Z,15.70
2022-10-04T11:28:08.877Z,15.80
2022-10-04T11:30:37.255Z,15.90
2022-10-04T11:33:03.944Z,16.20
2022-10-04T11:35:30.697Z,16.30
2022-10-04T11:37:57.293Z,16.40
2022-10-04T11:40:24.057Z,16.40
2022-10-04T11:42:50.905Z,16.40
2022-10-04T11:45:17.499Z,16.50
2022-10-04T17:50:54.087Z,15.00
2022-10-04T17:53:39.584Z,15.00
2022-10-04T17:56:06.101Z,15.00
2022-10-04T17:58:32.723Z,14.90
2022-10-04T18:00:59.424Z,14.90
2022-10-04T18:03:25.978Z,14.80
2022-10-04T18:05:52.685Z,14.90
2022-10-04T18:08:19.441Z,14.80
2022-10-04T18:10:46.038Z,14.70
2022-10-04T18:13:26.660Z,14.70
2022-10-04T18:15:53.335Z,14.70
2022-10-04T18:18:20.255Z,14.60
2022-10-04T18:20:46.815Z,14.50
2022-10-04T18:23:13.318Z,14.60
2022-10-04T18:25:41.387Z,14.50
2022-10-04T18:28:07.935Z,14.40
2022-10-04T18:30:34.610Z,14.30
2022-10-04T18:33:01.178Z,14.30
2022-10-04T18:35:27.931Z,14.30
2022-10-04T18:37:54.763Z,14.30
2022-10-04T18:40:21.443Z,14.20
2022-10-04T18:42:48.522Z,14.20
2022-10-04T18:45:15.139Z,14.10
2022-10-04T18:47:42.193Z,14.10
2022-10-04T18:50:09.392Z,14.10
2022-10-04T18:52:36.692Z,14.00
2022-10-04T18:55:03.379Z,14.00
2022-10-04T18:57:30.166Z,14.00
2022-10-04T19:00:15.538Z,14.00
2022-10-04T19:02:42.034Z,14.00
2022-10-04T19:05:08.983Z,13.90
2022-10-04T19:07:35.692Z,13.90
2022-10-04T19:10:02.275Z,13.90
2022-10-04T19:12:28.842Z,13.80
2022-10-04T19:14:55.366Z,13.80
2022-10-04T19:17:34.865Z,13.70
2022-10-04T19:20:04.824Z,13.70
2022-10-04T19:22:31.478Z,13.70
2022-10-04T19:24:58.058Z,13.60
2022-10-04T19:27:24.798Z,13.60
2022-10-04T19:29:51.420Z,13.60
2022-10-04T19:32:18.337Z,13.60
2022-10-04T19:34:45.601Z,13.50
2022-10-04T19:37:12.262Z,13.50
2022-10-04T19:39:38.788Z,13.50
2022-10-04T19:42:05.296Z,13.50
2022-10-04T19:44:31.973Z,13.50
2022-10-04T19:46:58.504Z,13.40
2022-10-04T19:49:25.659Z,13.40
2022-10-04T19:51:52.312Z,13.40
2022-10-04T19:54:18.978Z,13.30
2022-10-04T19:56:45.751Z,13.40
2022-10-04T19:59:12.616Z,13.30
2022-10-04T20:01:39.112Z,13.30
2022-10-04T20:04:24.463Z,13.30
2022-10-04T20:06:51.099Z,13.20
2022-10-04T20:09:17.657Z,13.20
2022-10-04T20:11:44.271Z,13.20
2022-10-04T20:14:11.568Z,13.20
2022-10-04T20:16:38.378Z,13.20
2022-10-04T20:19:09.671Z,13.20
2022-10-04T20:21:36.340Z,13.20
2022-10-04T20:24:03.738Z,13.20
2022-10-04T20:26:53.396Z,13.20
2022-10-04T20:29:20.940Z,13.20
2022-10-04T20:31:47.680Z,13.10
2022-10-04T20:34:14.300Z,13.10
2022-10-04T20:36:40.862Z,13.10
2022-10-04T20:39:07.402Z,13.00
2022-10-04T20:41:52.940Z,13.00
2022-10-04T20:44:19.899Z,13.00
2022-10-04T20:46:47.153Z,13.00
2022-10-04T20:49:14.237Z,13.00
2022-10-04T20:51:40.764Z,13.00
2022-10-04T20:54:09.082Z,13.00
2022-10-04T20:56:35.726Z,13.00
2022-10-04T20:59:02.338Z,13.00
2022-10-04T21:01:38.374Z,12.90
2022-10-04T21:04:06.607Z,12.90
2022-10-04T21:06:33.175Z,12.80
2022-10-04T21:08:59.768Z,12.80
2022-10-04T21:11:26.528Z,12.80
2022-10-04T21:13:53.192Z,12.80
2022-10-04T21:16:20.214Z,12.80
2022-10-04T21:18:47.019Z,12.70
2022-10-04T21:21:14.889Z,12.70
2022-10-04T21:23:41.556Z,12.60
2022-10-04T21:26:08.205Z,12.60
2022-10-04T21:28:34.967Z,12.60
2022-10-04T21:31:01.683Z,12.60
2022-10-04T21:33:28.439Z,12.60
2022-10-04T21:35:55.157Z,12.60
2022-10-04T21:38:21.780Z,12.50
2022-10-04T21:40:48.324Z,12.50
2022-10-04T21:43:15.129Z,12.50
2022-10-04T21:45:41.777Z,12.50
2022-10-04T21:48:08.335Z,12.40
2022-10-04T21:50:34.998Z,12.50
2022-10-04T21:53:01.585Z,12.40
2022-10-04T21:55:28.145Z,12.40
2022-10-04T21:57:54.701Z,12.40
2022-10-04T22:00:21.232Z,12.40
2022-10-04T22:02:47.786Z,12.40
2022-10-04T22:05:14.345Z,12.40
2022-10-04T22:07:40.891Z,12.40
2022-10-04T22:10:07.502Z,12.40
2022-10-04T22:12:34.333Z,12.30
2022-10-04T22:15:00.973Z,12.30
2022-10-04T22:17:27.635Z,12.20
2022-10-04T22:19:54.281Z,12.20
2022-10-04T22:22:20.786Z,12.20
2022-10-04T22:24:47.292Z,12.20
2022-10-04T22:27:13.865Z,12.20
2022-10-04T22:29:40.376Z,12.10
2022-10-04T22:32:06.942Z,12.10
2022-10-04T22:34:33.517Z,12.10
2022-10-04T22:37:00.038Z,12.10
2022-10-04T22:39:27.843Z,12.20
2022-10-04T22:41:54.437Z,12.20
2022-10-04T22:44:20.986Z,12.20
2022-10-04T22:46:48.181Z,12.20
2022-10-04T22:49:15.267Z,12.20
2022-10-04T22:51:41.802Z,12.10
2022-10-04T22:54:08.326Z,12.20
2022-10-04T22:56:34.943Z,12.20
2022-10-04T22:59:01.613Z,12.10
2022-10-04T23:01:28.193Z,12.10
2022-10-04T23:03:54.879Z,12.10
2022-10-04T23:06:21.610Z,12.10
2022-10-04T23:08:48.268Z,12.10
2022-10-04T23:11:14.801Z,12.10
2022-10-04T23:13:41.341Z,12.10
2022-10-04T23:16:08.054Z,12.00
2022-10-04T23:18:34.619Z,12.00
2022-10-04T23:21:01.744Z,12.00
2022-10-04T23:23:28.246Z,12.00
2022-10-04T23:25:54.827Z,11.90
2022-10-04T23:28:21.563Z,11.90
2022-10-04T23:30:48.145Z,11.90
2022-10-04T23:33:14.649Z,11.90
2022-10-04T23:35:41.282Z,11.90
2022-10-04T23:38:08.970Z,11.90
2022-10-04T23:40:35.476Z,11.90
2022-10-04T23:43:02.079Z,11.90
2022-10-04T23:45:28.656Z,11.90
2022-10-04T23:47:55.341Z,11.90
